Sestao, Spain
Current Conditions -  °F | °C
As of 3:30 PM on Thursday 27 Nov 2014 (Local Time) from LEBB Reporting Station
Clear Clear  
Wind Chill: 64°   Ceiling: Unl
Heat Index: 64°   Visibility: 6mi
Dew Point: 48°   Wind: 18mph
Humidity: 56%   Direction: 150°SSE
Pressure: 29.38"   Gusts: 31mph
Location:  43.31°N, 3.01°W
Report Text: LEBB 271430Z 15016G27KT 100V200 CAVOK 18/09 Q0995 NOSIG
Loading
Personal Weather Stations






























Interactive Weather Map New forecast layout! Learn more

10-Day Weather Forecast

Advertisements
Track Severe Weather on mobile